Time;durP1;ratioP1;P1;durP2;ratioP2;P2;SDS_P1;SDS_P2;PMS_P1;PMS_P2;Temp;Humidity;BMP_temperature;BMP_pressure;BME280_temperature;BME280_humidity;BME280_pressure;Samples;Min_cycle;Max_cycle;Signal;HPM_P1;HPM_P2
2021/07/30 00:02:13;;;;;;;22.60;8.57;;;;;;;;;;5115705;27;20114;-73
2021/07/30 00:04:39;;;;;;;12.90;8.82;;;;;;;;;;5134159;27;20027;-70
2021/07/30 00:07:05;;;;;;;15.32;8.85;;;;;;;;;;5133790;27;20459;-69
2021/07/30 00:09:32;;;;;;;16.02;9.00;;;;;;;;;;5115667;27;20060;-71
2021/07/30 00:11:58;;;;;;;14.27;9.60;;;;;;;;;;5115508;28;20443;-71
2021/07/30 00:14:24;;;;;;;14.95;9.55;;;;;;;;;;5115642;28;20110;-71
2021/07/30 00:16:50;;;;;;;11.57;9.20;;;;;;;;;;5115554;28;20023;-71
2021/07/30 00:19:16;;;;;;;14.23;9.05;;;;;;;;;;5134024;28;20030;-70
2021/07/30 00:21:43;;;;;;;15.77;9.75;;;;;;;;;;5118210;27;20352;-71
2021/07/30 00:24:09;;;;;;;17.08;11.07;;;;;;;;;;5138263;27;20022;-69
2021/07/30 00:26:35;;;;;;;17.45;9.98;;;;;;;;;;5138221;27;20038;-70
2021/07/30 00:29:02;;;;;;;15.25;9.95;;;;;;;;;;5138287;27;20027;-70
2021/07/30 00:31:28;;;;;;;20.35;9.98;;;;;;;;;;5119584;27;20131;-71
2021/07/30 00:33:54;;;;;;;19.65;10.38;;;;;;;;;;5138055;27;20019;-70
2021/07/30 00:36:20;;;;;;;18.20;10.73;;;;;;;;;;5137791;27;20113;-70
2021/07/30 00:38:47;;;;;;;13.85;11.02;;;;;;;;;;5138263;27;20030;-68
2021/07/30 00:41:13;;;;;;;19.50;9.82;;;;;;;;;;5138007;27;20421;-70
2021/07/30 00:43:39;;;;;;;20.33;10.23;;;;;;;;;;5119446;27;20027;-68
2021/07/30 00:46:06;;;;;;;13.93;10.20;;;;;;;;;;5137855;27;20058;-69
2021/07/30 00:48:32;;;;;;;14.70;10.27;;;;;;;;;;5137390;27;20058;-70
2021/07/30 00:50:59;;;;;;;20.60;10.77;;;;;;;;;;5137768;27;20015;-70
2021/07/30 00:53:26;;;;;;;21.10;10.00;;;;;;;;;;5119100;27;20031;-71
2021/07/30 00:55:53;;;;;;;14.07;10.30;;;;;;;;;;5119183;27;20031;-69
2021/07/30 00:58:21;;;;;;;19.65;10.02;;;;;;;;;;5137566;27;20066;-69
2021/07/30 01:00:47;;;;;;;18.20;9.88;;;;;;;;;;5137595;27;20447;-69
2021/07/30 01:03:13;;;;;;;24.67;12.15;;;;;;;;;;5137542;27;20034;-69
2021/07/30 01:05:39;;;;;;;21.60;11.70;;;;;;;;;;5137439;27;20152;-70
2021/07/30 01:08:06;;;;;;;26.35;13.02;;;;;;;;;;5118914;27;20035;-70
2021/07/30 01:10:32;;;;;;;19.00;12.63;;;;;;;;;;5137453;27;20023;-70
2021/07/30 01:12:58;;;;;;;23.05;11.40;;;;;;;;;;5137385;27;20031;-71
2021/07/30 01:15:24;;;;;;;22.48;11.95;;;;;;;;;;5118846;27;20068;-69
2021/07/30 01:17:51;;;;;;;16.02;11.27;;;;;;;;;;5137232;27;20022;-69
2021/07/30 01:20:21;;;;;;;25.02;12.57;;;;;;;;;;5136943;27;20110;-70
2021/07/30 01:22:57;;;;;;;20.10;12.57;;;;;;;;;;5118770;27;20027;-70
2021/07/30 01:25:23;;;;;;;23.38;12.20;;;;;;;;;;5137127;27;20019;-70
2021/07/30 01:27:51;;;;;;;19.05;10.98;;;;;;;;;;5118575;27;20042;-68
2021/07/30 01:30:18;;;;;;;24.02;11.63;;;;;;;;;;5137075;27;20047;-68
2021/07/30 01:32:44;;;;;;;21.02;12.82;;;;;;;;;;5136850;27;20130;-69
2021/07/30 01:35:11;;;;;;;14.55;11.50;;;;;;;;;;5136604;27;20020;-71
2021/07/30 01:37:37;;;;;;;22.20;12.57;;;;;;;;;;5136899;27;20094;-71
2021/07/30 01:40:04;;;;;;;22.70;12.23;;;;;;;;;;5136563;27;20395;-70
2021/07/30 01:42:31;;;;;;;24.77;11.90;;;;;;;;;;5136504;27;20546;-71
2021/07/30 01:44:57;;;;;;;25.75;12.50;;;;;;;;;;5136705;27;20030;-70
2021/07/30 01:47:23;;;;;;;15.55;11.30;;;;;;;;;;5136443;27;20019;-70
2021/07/30 01:49:50;;;;;;;21.85;12.45;;;;;;;;;;5118243;27;20027;-70
2021/07/30 01:52:20;;;;;;;21.73;12.15;;;;;;;;;;5118088;27;20062;-69
2021/07/30 01:54:47;;;;;;;21.23;12.88;;;;;;;;;;5136776;27;20072;-70
2021/07/30 01:57:13;;;;;;;29.23;14.18;;;;;;;;;;5136469;27;20022;-70
2021/07/30 01:59:42;;;;;;;27.35;13.85;;;;;;;;;;5136422;27;20026;-70
2021/07/30 02:02:08;;;;;;;19.70;13.38;;;;;;;;;;5136365;27;20053;-70
2021/07/30 02:04:35;;;;;;;21.63;13.48;;;;;;;;;;5136632;27;20027;-70
2021/07/30 02:07:01;;;;;;;24.27;11.45;;;;;;;;;;5117869;27;20020;-70
2021/07/30 02:09:31;;;;;;;18.65;11.25;;;;;;;;;;5117799;27;20378;-69
2021/07/30 02:11:58;;;;;;;21.83;11.38;;;;;;;;;;5136202;27;20064;-71
2021/07/30 02:14:28;;;;;;;20.55;11.73;;;;;;;;;;5136233;27;20015;-71
2021/07/30 02:16:55;;;;;;;22.27;11.00;;;;;;;;;;5136114;27;20046;-69
2021/07/30 02:19:22;;;;;;;17.42;11.25;;;;;;;;;;5135780;27;20030;-70
2021/07/30 02:21:49;;;;;;;22.52;12.23;;;;;;;;;;5136124;27;20033;-70
2021/07/30 02:24:15;;;;;;;22.15;11.10;;;;;;;;;;5135957;27;20448;-69
2021/07/30 02:26:42;;;;;;;21.05;12.43;;;;;;;;;;5135947;27;20106;-70
2021/07/30 02:29:09;;;;;;;18.27;11.35;;;;;;;;;;5135859;27;20104;-70
2021/07/30 02:31:35;;;;;;;22.83;12.10;;;;;;;;;;5135802;27;20030;-70
2021/07/30 02:34:01;;;;;;;17.10;11.63;;;;;;;;;;5135773;27;20015;-70
2021/07/30 02:36:28;;;;;;;26.35;12.27;;;;;;;;;;5135726;27;20542;-70
2021/07/30 02:38:54;;;;;;;17.95;11.00;;;;;;;;;;5135361;27;20023;-70
2021/07/30 02:41:20;;;;;;;17.15;10.82;;;;;;;;;;5117256;27;20023;-70
2021/07/30 02:43:47;;;;;;;20.88;11.93;;;;;;;;;;5135101;27;20383;-73
2021/07/30 02:46:16;;;;;;;16.30;11.50;;;;;;;;;;5135534;27;20016;-73
2021/07/30 02:48:42;;;;;;;19.98;11.68;;;;;;;;;;5116640;27;20057;-73
2021/07/30 02:51:09;;;;;;;16.52;11.48;;;;;;;;;;5135476;27;20491;-70
2021/07/30 02:53:35;;;;;;;19.20;12.48;;;;;;;;;;5135281;27;20129;-70
2021/07/30 02:56:01;;;;;;;20.67;13.27;;;;;;;;;;5135029;27;20411;-70
2021/07/30 02:58:27;;;;;;;24.75;13.48;;;;;;;;;;5135287;27;20106;-72
2021/07/30 03:00:53;;;;;;;20.58;11.52;;;;;;;;;;5135305;27;20090;-71
2021/07/30 03:03:20;;;;;;;18.17;11.30;;;;;;;;;;5135182;27;20023;-71
2021/07/30 03:05:46;;;;;;;15.55;10.85;;;;;;;;;;5135644;27;20019;-72
2021/07/30 03:08:12;;;;;;;22.50;11.63;;;;;;;;;;5135130;27;20047;-74
2021/07/30 03:10:39;;;;;;;14.25;10.23;;;;;;;;;;5135071;27;20051;-70
2021/07/30 03:13:05;;;;;;;13.95;10.70;;;;;;;;;;5134891;27;20084;-72
2021/07/30 03:15:31;;;;;;;16.73;11.38;;;;;;;;;;5116507;27;20051;-72
2021/07/30 03:17:57;;;;;;;18.98;11.57;;;;;;;;;;5116483;27;20146;-71
2021/07/30 03:20:23;;;;;;;42.25;16.23;;;;;;;;;;5134925;27;20098;-72
2021/07/30 03:22:50;;;;;;;22.23;13.02;;;;;;;;;;5134810;27;20027;-71
2021/07/30 03:25:16;;;;;;;26.17;12.98;;;;;;;;;;5134739;27;20015;-71
2021/07/30 03:27:42;;;;;;;23.88;13.65;;;;;;;;;;5134724;27;20027;-71
2021/07/30 03:30:09;;;;;;;27.80;14.05;;;;;;;;;;5134709;27;20498;-72
2021/07/30 03:32:35;;;;;;;32.20;14.43;;;;;;;;;;5134579;27;20031;-70
2021/07/30 03:35:02;;;;;;;24.63;14.32;;;;;;;;;;5116142;27;20029;-73
2021/07/30 03:37:28;;;;;;;29.95;13.80;;;;;;;;;;5134550;27;20106;-72
2021/07/30 03:39:54;;;;;;;19.48;12.60;;;;;;;;;;5116067;27;20031;-70
2021/07/30 03:42:21;;;;;;;27.13;13.18;;;;;;;;;;5134533;27;20043;-72
2021/07/30 03:44:47;;;;;;;27.13;13.60;;;;;;;;;;5134434;27;20019;-73
2021/07/30 03:47:13;;;;;;;24.83;12.52;;;;;;;;;;5115944;27;20026;-72
2021/07/30 03:49:39;;;;;;;24.15;11.98;;;;;;;;;;5133878;27;20035;-72
2021/07/30 03:52:05;;;;;;;19.70;11.35;;;;;;;;;;5134304;27;20035;-72
2021/07/30 03:54:31;;;;;;;18.83;13.40;;;;;;;;;;5134420;27;20102;-71
2021/07/30 03:56:58;;;;;;;25.85;12.10;;;;;;;;;;5133585;27;20024;-72
2021/07/30 03:59:24;;;;;;;23.75;12.27;;;;;;;;;;5115752;28;20118;-70
2021/07/30 04:01:50;;;;;;;24.60;12.35;;;;;;;;;;5115809;28;20033;-73
2021/07/30 04:04:16;;;;;;;21.42;12.15;;;;;;;;;;5134224;27;20035;-72
2021/07/30 04:06:44;;;;;;;18.75;12.27;;;;;;;;;;5134170;27;20020;-70
2021/07/30 04:09:11;;;;;;;17.73;12.10;;;;;;;;;;5134123;27;20359;-73
2021/07/30 04:11:38;;;;;;;20.08;10.85;;;;;;;;;;5134035;27;20460;-70
2021/07/30 04:14:05;;;;;;;21.65;11.40;;;;;;;;;;5134057;27;20023;-72
2021/07/30 04:16:33;;;;;;;22.38;12.65;;;;;;;;;;5134061;28;20108;-71
2021/07/30 04:18:59;;;;;;;14.82;11.43;;;;;;;;;;5134031;28;20023;-69
2021/07/30 04:21:25;;;;;;;15.27;10.73;;;;;;;;;;5134286;28;20050;-70
2021/07/30 04:23:51;;;;;;;18.52;10.45;;;;;;;;;;5133985;28;20102;-71
2021/07/30 04:26:18;;;;;;;13.95;10.15;;;;;;;;;;5133975;28;20038;-72
2021/07/30 04:28:44;;;;;;;56.22;13.32;;;;;;;;;;5133962;28;20064;-69
2021/07/30 04:31:10;;;;;;;43.75;13.35;;;;;;;;;;5115720;28;20433;-69
2021/07/30 04:33:36;;;;;;;35.80;12.02;;;;;;;;;;5133822;28;20031;-71
2021/07/30 04:36:03;;;;;;;20.00;10.88;;;;;;;;;;5134063;28;20023;-72
2021/07/30 04:38:29;;;;;;;17.05;11.10;;;;;;;;;;5133550;28;20062;-70
2021/07/30 04:40:55;;;;;;;24.38;11.10;;;;;;;;;;5115442;28;20039;-72
2021/07/30 04:43:21;;;;;;;20.58;11.10;;;;;;;;;;5133736;28;20061;-70
2021/07/30 04:45:47;;;;;;;26.10;12.63;;;;;;;;;;5115316;28;20110;-69
2021/07/30 04:48:13;;;;;;;19.15;13.65;;;;;;;;;;5103397;28;20052;-71
2021/07/30 04:50:40;;;;;;;22.00;14.25;;;;;;;;;;5093067;28;20020;-72
2021/07/30 04:53:06;;;;;;;22.88;15.10;;;;;;;;;;5092749;28;20559;-72
2021/07/30 04:55:32;;;;;;;23.52;14.77;;;;;;;;;;5092790;28;20052;-72
2021/07/30 04:57:58;;;;;;;22.65;13.38;;;;;;;;;;5092745;28;20027;-71
2021/07/30 05:00:24;;;;;;;21.02;13.77;;;;;;;;;;5092761;28;20028;-69
2021/07/30 05:02:54;;;;;;;26.73;18.55;;;;;;;;;;5093049;28;20067;-72
2021/07/30 05:05:20;;;;;;;31.52;19.60;;;;;;;;;;5092697;28;20099;-68
2021/07/30 05:07:46;;;;;;;27.92;17.25;;;;;;;;;;5095124;28;20028;-72
2021/07/30 05:10:12;;;;;;;29.30;18.05;;;;;;;;;;5094919;28;20081;-69
2021/07/30 05:12:38;;;;;;;27.80;17.88;;;;;;;;;;5095044;28;20476;-71
2021/07/30 05:15:05;;;;;;;32.47;19.67;;;;;;;;;;5096343;28;20128;-70
2021/07/30 05:17:32;;;;;;;30.20;19.17;;;;;;;;;;5096012;28;20452;-70
2021/07/30 05:19:58;;;;;;;29.58;19.10;;;;;;;;;;5096286;28;20043;-71
2021/07/30 05:22:24;;;;;;;26.30;18.35;;;;;;;;;;5096281;28;20031;-71
2021/07/30 05:24:50;;;;;;;34.88;18.95;;;;;;;;;;5096198;28;20027;-71
2021/07/30 05:27:17;;;;;;;39.92;19.33;;;;;;;;;;5094541;28;20028;-71
2021/07/30 05:29:43;;;;;;;37.65;19.60;;;;;;;;;;5095010;28;20111;-69
2021/07/30 05:32:09;;;;;;;35.00;20.58;;;;;;;;;;5095967;28;20042;-69
2021/07/30 05:34:35;;;;;;;42.85;20.35;;;;;;;;;;5095729;28;20116;-70
2021/07/30 05:37:01;;;;;;;37.15;21.38;;;;;;;;;;5095941;28;20032;-70
2021/07/30 05:39:30;;;;;;;32.42;20.92;;;;;;;;;;5095947;28;20412;-71
2021/07/30 05:41:56;;;;;;;30.05;19.45;;;;;;;;;;5095941;28;20036;-71
2021/07/30 05:44:22;;;;;;;39.72;19.80;;;;;;;;;;5095790;28;20016;-71
2021/07/30 05:46:48;;;;;;;36.63;17.90;;;;;;;;;;5095697;28;20107;-70
2021/07/30 05:49:15;;;;;;;39.33;20.05;;;;;;;;;;5129538;27;20137;-72
2021/07/30 05:51:41;;;;;;;22.17;16.67;;;;;;;;;;5136612;27;20027;-71
2021/07/30 05:54:07;;;;;;;25.33;14.23;;;;;;;;;;5118103;27;20118;-70
2021/07/30 05:56:33;;;;;;;31.65;14.27;;;;;;;;;;5136772;27;20469;-70
2021/07/30 05:58:59;;;;;;;18.02;11.13;;;;;;;;;;5136459;27;20027;-71
2021/07/30 06:01:25;;;;;;;20.80;13.18;;;;;;;;;;5136411;27;20102;-71
2021/07/30 06:03:52;;;;;;;22.25;11.63;;;;;;;;;;5136423;27;20352;-72
2021/07/30 06:06:18;;;;;;;21.42;12.88;;;;;;;;;;5136074;27;20375;-71
2021/07/30 06:08:45;;;;;;;18.38;11.48;;;;;;;;;;5136331;27;20076;-71
2021/07/30 06:11:11;;;;;;;20.17;12.02;;;;;;;;;;5135996;27;20072;-72
2021/07/30 06:13:37;;;;;;;20.23;11.43;;;;;;;;;;5136147;27;20036;-72
2021/07/30 06:16:03;;;;;;;18.50;10.07;;;;;;;;;;5136059;27;20019;-70
2021/07/30 06:18:30;;;;;;;21.27;10.32;;;;;;;;;;5116591;27;20019;-71
2021/07/30 06:20:56;;;;;;;17.40;9.35;;;;;;;;;;5117544;27;20034;-71
2021/07/30 06:23:22;;;;;;;20.48;11.90;;;;;;;;;;5136001;27;20027;-71
2021/07/30 06:25:48;;;;;;;17.30;10.02;;;;;;;;;;5117435;27;20034;-71
2021/07/30 06:28:14;;;;;;;16.92;9.23;;;;;;;;;;5117494;27;20023;-71
2021/07/30 06:30:41;;;;;;;20.40;9.02;;;;;;;;;;5136003;27;20031;-71
2021/07/30 06:33:10;;;;;;;22.45;9.85;;;;;;;;;;5135764;27;20031;-71
2021/07/30 06:35:37;;;;;;;23.98;9.30;;;;;;;;;;5117281;27;20023;-71
2021/07/30 06:38:04;;;;;;;19.48;10.80;;;;;;;;;;5135750;27;20031;-71
2021/07/30 06:40:30;;;;;;;19.13;9.38;;;;;;;;;;5135636;27;20475;-71
2021/07/30 06:42:57;;;;;;;16.38;8.40;;;;;;;;;;5135627;27;20396;-71
2021/07/30 06:45:24;;;;;;;15.80;8.15;;;;;;;;;;5135532;27;20028;-71
2021/07/30 06:47:50;;;;;;;18.42;9.25;;;;;;;;;;5135408;27;20045;-71
2021/07/30 06:50:16;;;;;;;20.73;8.05;;;;;;;;;;5135443;27;20363;-71
2021/07/30 06:52:42;;;;;;;17.13;8.55;;;;;;;;;;5135513;27;20114;-71
2021/07/30 06:55:09;;;;;;;15.13;8.27;;;;;;;;;;5135080;27;20024;-71
2021/07/30 06:57:35;;;;;;;16.75;9.65;;;;;;;;;;5135225;27;20015;-72
2021/07/30 07:00:01;;;;;;;10.63;7.95;;;;;;;;;;5135259;27;20061;-72
2021/07/30 07:02:27;;;;;;;15.10;8.32;;;;;;;;;;5135159;27;20061;-71
2021/07/30 07:04:53;;;;;;;18.83;8.27;;;;;;;;;;5116649;27;20087;-72
2021/07/30 07:07:20;;;;;;;24.85;9.32;;;;;;;;;;5116713;27;20055;-72
2021/07/30 07:09:46;;;;;;;15.98;7.53;;;;;;;;;;5115682;27;20027;-72
2021/07/30 07:12:12;;;;;;;22.48;7.18;;;;;;;;;;5134666;27;20117;-71
2021/07/30 07:14:38;;;;;;;14.75;8.15;;;;;;;;;;5134678;27;20062;-73
2021/07/30 07:17:05;;;;;;;21.73;7.72;;;;;;;;;;5134930;27;20042;-71
2021/07/30 07:19:31;;;;;;;13.07;7.00;;;;;;;;;;5116424;27;20101;-71
2021/07/30 07:21:57;;;;;;;21.63;7.82;;;;;;;;;;5135061;27;20098;-72
2021/07/30 07:24:23;;;;;;;16.27;7.47;;;;;;;;;;5134839;27;20023;-72
2021/07/30 07:26:49;;;;;;;17.42;6.75;;;;;;;;;;5134762;27;20031;-71
2021/07/30 07:29:18;;;;;;;11.85;6.80;;;;;;;;;;5134829;27;20110;-71
2021/07/30 07:31:46;;;;;;;13.73;6.05;;;;;;;;;;5134633;27;20107;-72
2021/07/30 07:34:12;;;;;;;18.10;6.75;;;;;;;;;;5116045;27;20520;-71
2021/07/30 07:36:38;;;;;;;15.30;6.90;;;;;;;;;;5116277;27;20027;-71
2021/07/30 07:39:04;;;;;;;13.27;6.30;;;;;;;;;;5134443;27;20026;-70
2021/07/30 07:41:31;;;;;;;13.82;5.00;;;;;;;;;;5134377;27;20038;-71
2021/07/30 07:43:57;;;;;;;10.57;5.43;;;;;;;;;;5115885;27;20055;-71
2021/07/30 07:46:23;;;;;;;16.98;5.97;;;;;;;;;;5115668;27;20463;-72
2021/07/30 07:48:49;;;;;;;11.88;5.18;;;;;;;;;;5134327;27;20120;-70
2021/07/30 07:51:16;;;;;;;8.15;5.68;;;;;;;;;;5134565;27;20031;-71
2021/07/30 07:53:42;;;;;;;13.63;5.15;;;;;;;;;;5115484;27;20027;-73
2021/07/30 07:56:08;;;;;;;9.48;4.55;;;;;;;;;;5115783;27;20031;-73
2021/07/30 07:58:34;;;;;;;5.55;4.88;;;;;;;;;;5115806;27;20034;-73
2021/07/30 08:01:01;;;;;;;10.30;4.43;;;;;;;;;;5133753;27;20368;-72
2021/07/30 08:03:28;;;;;;;10.60;4.93;;;;;;;;;;5134048;27;20075;-72
2021/07/30 08:05:54;;;;;;;7.47;5.18;;;;;;;;;;5134154;27;20012;-72
2021/07/30 08:08:20;;;;;;;10.63;4.78;;;;;;;;;;5115593;27;20118;-72
2021/07/30 08:10:55;;;;;;;8.63;4.25;;;;;;;;;;5116568;28;20503;-70
2021/07/30 08:13:22;;;;;;;8.02;4.18;;;;;;;;;;5133652;27;20024;-72
2021/07/30 08:15:48;;;;;;;8.02;3.75;;;;;;;;;;5115144;28;20020;-71
2021/07/30 08:18:14;;;;;;;12.15;4.88;;;;;;;;;;5133805;28;20032;-71
2021/07/30 08:20:41;;;;;;;6.68;4.32;;;;;;;;;;5133933;28;20076;-72
2021/07/30 08:23:07;;;;;;;7.10;4.72;;;;;;;;;;5132004;28;20743;-73
2021/07/30 08:25:33;;;;;;;9.90;4.25;;;;;;;;;;5132851;28;20019;-72
2021/07/30 08:28:02;;;;;;;12.40;7.03;;;;;;;;;;5114569;28;20019;-72
2021/07/30 08:30:28;;;;;;;19.45;11.35;;;30.10;70.90;;;;;;5133768;28;20016;-73
2021/07/30 08:32:54;;;;;;;6.88;3.63;;;30.10;71.40;;;;;;5115475;28;20058;-72
2021/07/30 08:35:20;;;;;;;11.10;4.38;;;30.20;68.90;;;;;;5133863;28;20471;-72
2021/07/30 08:37:45;;;;;;;7.78;4.10;;;30.30;69.40;;;;;;5133802;28;20027;-73
2021/07/30 08:40:13;;;;;;;9.65;4.78;;;30.50;71.30;;;;;;5115383;28;20034;-72
2021/07/30 08:42:39;;;;;;;9.95;4.38;;;30.60;73.20;;;;;;5136253;27;20114;-73
2021/07/30 08:45:06;;;;;;;9.88;4.63;;;30.70;74.80;;;;;;5137929;27;20825;-72
2021/07/30 08:47:32;;;;;;;10.82;4.10;;;30.90;73.40;;;;;;5119148;27;20019;-73
2021/07/30 08:49:58;;;;;;;8.65;4.00;;;31.00;72.20;;;;;;5119228;27;20027;-73
2021/07/30 08:52:49;;;;;;;12.85;4.30;;;31.10;70.20;;;;;;5116589;27;20038;-72
2021/07/30 08:55:16;;;;;;;5.67;3.77;;;31.30;70.70;;;;;;5117960;27;20035;-72
2021/07/30 08:57:42;;;;;;;6.43;2.97;;;31.40;76.50;;;;;;5137265;27;20050;-72
2021/07/30 09:00:13;;;;;;;6.15;4.15;;;31.50;80.10;;;;;;5117217;27;20072;-72
2021/07/30 09:02:39;;;;;;;10.02;3.92;;;31.70;84.70;;;;;;5137170;27;20039;-72
2021/07/30 09:05:32;;;;;;;6.00;3.28;;;31.80;78.40;;;;;;5119070;27;20118;-73
2021/07/30 09:08:07;;;;;;;6.03;3.33;;;31.80;76.30;;;;;;5132775;27;20043;-72
2021/07/30 09:10:37;;;;;;;10.40;3.85;;;31.90;74.50;;;;;;5137448;27;20460;-73
2021/07/30 09:13:17;;;;;;;7.87;3.77;;;31.90;75.00;;;;;;5118923;27;20043;-72
2021/07/30 09:15:46;;;;;;;7.85;3.72;;;32.10;72.40;;;;;;5137156;27;20030;-72
2021/07/30 09:18:44;;;;;;;5.03;3.13;;;32.30;66.80;;;;;;5137597;27;20084;-73
2021/07/30 09:21:35;;;;;;;6.72;3.55;;;32.40;64.40;;;;;;5118140;27;20114;-73
2021/07/30 09:24:06;;;;;;;9.10;3.65;;;32.60;63.70;;;;;;5137179;27;20019;-72
2021/07/30 09:26:32;;;;;;;6.47;3.22;;;32.70;63.80;;;;;;5136833;27;20360;-74
2021/07/30 09:29:00;;;;;;;5.47;3.80;;;32.90;62.00;;;;;;5118492;27;20196;-72
2021/07/30 09:31:38;;;;;;;13.18;3.30;;;33.10;64.20;;;;;;5116152;27;20059;-73
2021/07/30 09:34:14;;;;;;;5.57;3.33;;;33.20;64.10;;;;;;5136824;27;20046;-73
2021/07/30 09:36:45;;;;;;;6.82;2.90;;;33.30;62.40;;;;;;5136841;27;20027;-72
2021/07/30 09:39:11;;;;;;;5.38;3.20;;;33.40;64.20;;;;;;5136958;27;20027;-71
2021/07/30 09:41:37;;;;;;;5.85;3.70;;;33.50;60.30;;;;;;5133202;27;20432;-72
2021/07/30 09:44:07;;;;;;;6.10;3.25;;;33.70;61.50;;;;;;5132052;27;20031;-72
2021/07/30 09:46:35;;;;;;;7.50;3.40;;;33.60;63.00;;;;;;5117739;27;20486;-73
2021/07/30 09:49:01;;;;;;;30.90;4.55;;;33.80;61.00;;;;;;5113816;28;20047;-72
2021/07/30 09:51:27;;;;;;;6.20;3.22;;;33.90;58.50;;;;;;5116128;28;20028;-73
2021/07/30 09:53:54;;;;;;;6.07;3.33;;;33.80;59.20;;;;;;5114715;28;20031;-72
2021/07/30 09:56:22;;;;;;;6.85;2.90;;;34.10;62.10;;;;;;5115882;28;20106;-72
2021/07/30 09:58:53;;;;;;;7.40;3.30;;;34.10;60.50;;;;;;5115845;28;20379;-72
2021/07/30 10:01:21;;;;;;;9.55;3.38;;;34.20;60.50;;;;;;5114507;28;20032;-72
2021/07/30 10:03:52;;;;;;;5.38;3.13;;;34.40;61.60;;;;;;5125219;27;20035;-72
2021/07/30 10:06:18;;;;;;;4.57;3.63;;;34.50;62.00;;;;;;5115325;27;20023;-75
2021/07/30 10:08:44;;;;;;;5.75;4.03;;;34.60;61.30;;;;;;5116222;27;20027;-73
2021/07/30 10:11:14;;;;;;;4.75;3.22;;;34.80;61.00;;;;;;5127027;27;20077;-73
2021/07/30 10:13:48;;;;;;;6.72;3.17;;;34.90;60.00;;;;;;5108521;27;20161;-73
2021/07/30 10:16:16;;;;;;;4.43;3.10;;;34.90;57.90;;;;;;5105952;27;20073;-72
2021/07/30 10:18:44;;;;;;;6.00;3.20;;;;;;;;;;5114697;27;20081;-74
2021/07/30 10:21:12;;;;;;;6.38;3.58;;;;;;;;;;5117094;27;20016;-73
2021/07/30 10:23:39;;;;;;;10.75;3.72;;;;;;;;;;5135647;27;20076;-72
2021/07/30 10:26:05;;;;;;;7.13;3.30;;;35.10;62.70;;;;;;5117032;27;20023;-72
2021/07/30 10:28:33;;;;;;;5.63;3.25;;;35.60;58.80;;;;;;5116869;27;20024;-72
2021/07/30 10:31:08;;;;;;;9.98;3.40;;;35.30;57.00;;;;;;5117106;27;20115;-72
2021/07/30 10:33:34;;;;;;;9.85;3.65;;;35.40;58.50;;;;;;5135732;27;20042;-71
2021/07/30 10:36:06;;;;;;;8.13;3.70;;;35.90;58.20;;;;;;5135491;27;20029;-73
2021/07/30 10:38:33;;;;;;;6.10;3.17;;;36.50;56.90;;;;;;5135446;27;20387;-72
2021/07/30 10:40:59;;;;;;;10.25;3.95;;;36.90;57.50;;;;;;5117214;27;20387;-72
2021/07/30 10:43:27;;;;;;;7.85;3.65;;;37.20;55.40;;;;;;5135583;27;20064;-72
2021/07/30 10:46:20;;;;;;;6.93;3.92;;;37.90;54.80;;;;;;5135658;27;20020;-72
2021/07/30 10:48:55;;;;;;;13.10;3.72;;;37.90;54.20;;;;;;5130744;27;20068;-72
2021/07/30 10:51:26;;;;;;;7.53;3.63;;;38.50;53.80;;;;;;5135451;27;20094;-73
2021/07/30 10:54:00;;;;;;;10.50;3.20;;;39.10;52.80;;;;;;5135455;27;20467;-72
2021/07/30 10:56:32;;;;;;;14.50;4.10;;;39.70;52.60;;;;;;5116947;27;20033;-72
2021/07/30 10:59:01;;;;;;;6.72;3.38;;;39.80;51.20;;;;;;5135363;27;20336;-73
2021/07/30 11:01:30;;;;;;;7.93;3.97;;;40.30;51.00;;;;;;5134040;27;20027;-75
2021/07/30 11:03:58;;;;;;;9.48;4.50;;;40.40;49.00;;;;;;5104151;27;20035;-72
2021/07/30 11:06:51;;;;;;;15.85;4.18;;;40.80;47.20;;;;;;5124384;27;20076;-73
2021/07/30 11:09:17;;;;;;;7.50;3.28;;;41.00;48.30;;;;;;5124586;27;20597;-73
2021/07/30 11:11:56;;;;;;;5.68;4.05;;;41.60;48.40;;;;;;5130912;27;20039;-72
2021/07/30 11:14:40;;;;;;;9.57;4.32;;;42.10;46.80;;;;;;5135075;27;20110;-72
2021/07/30 11:17:08;;;;;;;11.50;4.13;;;42.20;45.70;;;;;;5135045;27;20055;-73
2021/07/30 11:19:37;;;;;;;13.52;5.10;;;42.30;45.80;;;;;;5133254;27;20035;-73
2021/07/30 11:22:08;;;;;;;12.05;5.00;;;42.50;45.50;;;;;;5134378;27;20072;-74
2021/07/30 11:24:41;;;;;;;;;;;42.80;45.50;;;;;;5135268;27;20446;-73
2021/07/30 11:27:08;;;;;;;12.90;4.22;;;43.00;45.30;;;;;;5116303;27;20276;-72
2021/07/30 11:29:34;;;;;;;10.23;4.18;;;43.00;45.40;;;;;;5116215;27;20027;-72
2021/07/30 11:32:06;;;;;;;7.28;4.28;;;43.40;46.50;;;;;;5134291;27;20031;-72
2021/07/30 11:34:36;;;;;;;12.65;4.53;;;43.60;46.20;;;;;;5134647;27;20080;-72
2021/07/30 11:37:10;;;;;;;7.38;4.70;;;43.90;45.50;;;;;;5134472;27;20384;-73
2021/07/30 11:39:39;;;;;;;9.25;4.35;;;44.20;45.90;;;;;;5134586;27;20054;-74
2021/07/30 11:42:10;;;;;;;13.93;4.90;;;44.30;44.20;;;;;;5134543;27;20117;-72
2021/07/30 11:44:43;;;;;;;9.30;4.25;;;;;;;;;;5134476;27;20045;-72
2021/07/30 11:47:10;;;;;;;10.05;4.30;;;44.90;42.50;;;;;;5116050;27;20079;-73
2021/07/30 11:49:38;;;;;;;15.68;4.82;;;44.50;43.50;;;;;;5134275;27;20100;-72
2021/07/30 11:52:07;;;;;;;6.75;4.47;;;44.90;54.40;;;;;;5133832;27;20047;-72
2021/07/30 11:54:34;;;;;;;14.73;5.28;;;45.30;46.40;;;;;;5116013;28;20375;-72
2021/07/30 11:57:00;;;;;;;10.85;5.18;;;45.30;63.10;;;;;;5134362;27;20034;-74
2021/07/30 11:59:41;;;;;;;9.48;4.53;;;45.50;55.20;;;;;;5134227;27;20377;-73
2021/07/30 12:02:07;;;;;;;8.50;4.40;;;45.60;42.80;;;;;;5134218;27;20023;-71
2021/07/30 12:04:33;;;;;;;11.55;4.82;;;45.30;45.00;;;;;;5115712;27;20488;-72
2021/07/30 12:07:12;;;;;;;7.78;4.10;;;45.30;44.40;;;;;;5134122;27;20027;-71
2021/07/30 12:09:40;;;;;;;13.98;4.57;;;45.30;65.10;;;;;;5134212;27;20020;-72
2021/07/30 12:12:08;;;;;;;9.68;4.10;;;45.10;43.00;;;;;;5134077;27;20074;-72
2021/07/30 12:14:35;;;;;;;6.95;4.50;;;;;;;;;;5115634;28;20028;-70
2021/07/30 12:17:01;;;;;;;10.57;5.07;;;;;;;;;;5114730;28;20035;-70
2021/07/30 12:19:29;;;;;;;14.02;5.28;;;46.60;43.20;;;;;;5134048;28;20118;-71
2021/07/30 12:21:56;;;;;;;12.27;4.65;;;;;;;;;;5133958;28;20084;-72
2021/07/30 12:24:22;;;;;;;11.38;4.70;;;46.70;40.60;;;;;;5115515;28;20023;-70
2021/07/30 12:26:48;;;;;;;8.98;4.72;;;;;;;;;;5130318;28;20087;-72
2021/07/30 12:29:43;;;;;;;16.40;5.00;;;47.30;40.00;;;;;;5133525;28;20424;-71
2021/07/30 12:32:26;;;;;;;11.07;4.80;;;47.50;40.50;;;;;;5134207;28;20038;-71
2021/07/30 12:34:59;;;;;;;12.00;4.97;;;47.60;40.30;;;;;;5133767;28;20065;-71
2021/07/30 12:37:27;;;;;;;17.13;5.28;;;48.30;38.80;;;;;;5115149;28;20059;-71
2021/07/30 12:39:55;;;;;;;12.75;5.28;;;48.40;39.90;;;;;;5115285;28;20375;-72
2021/07/30 12:42:22;;;;;;;13.07;4.30;;;48.70;40.20;;;;;;5133838;28;20037;-71
2021/07/30 12:45:15;;;;;;;12.18;4.85;;;48.10;39.30;;;;;;5132594;28;20036;-70
2021/07/30 12:47:49;;;;;;;10.13;4.88;;;47.50;39.40;;;;;;5132093;28;20104;-70
2021/07/30 12:50:29;;;;;;;16.02;4.72;;;48.20;40.10;;;;;;5115180;28;20118;-71
2021/07/30 12:53:03;;;;;;;9.98;4.45;;;48.90;39.90;;;;;;5133066;28;20584;-69
2021/07/30 12:55:28;;;;;;;8.18;4.43;;;48.90;38.70;;;;;;5133576;28;20103;-71
2021/07/30 12:57:54;;;;;;;7.68;4.20;;;48.60;39.20;;;;;;5133492;28;20051;-72
2021/07/30 13:00:31;;;;;;;9.32;3.90;;;49.00;37.90;;;;;;5115181;28;20031;-71
2021/07/30 13:02:58;;;;;;;11.88;4.72;;;49.10;38.80;;;;;;5133487;28;20520;-75
2021/07/30 13:05:30;;;;;;;9.80;4.43;;;48.70;38.70;;;;;;5133529;28;20052;-72
2021/07/30 13:07:57;;;;;;;11.85;4.70;;;49.20;38.50;;;;;;5133280;28;20038;-70
2021/07/30 13:10:23;;;;;;;11.63;4.40;;;49.60;37.80;;;;;;5133472;28;20124;-71
2021/07/30 13:12:49;;;;;;;10.82;4.10;;;49.10;37.00;;;;;;5133242;28;20058;-71
2021/07/30 13:15:15;;;;;;;9.07;4.45;;;49.30;38.20;;;;;;5115071;28;20024;-73
2021/07/30 13:17:41;;;;;;;7.50;4.38;;;50.00;38.50;;;;;;5133489;28;20054;-71
2021/07/30 13:20:07;;;;;;;5.85;4.03;;;49.10;38.80;;;;;;5133440;28;20471;-72
2021/07/30 13:22:33;;;;;;;8.68;4.13;;;50.20;36.50;;;;;;5133720;28;20102;-71
2021/07/30 13:24:59;;;;;;;9.98;4.95;;;50.40;37.00;;;;;;5115040;28;20487;-71
2021/07/30 13:27:25;;;;;;;7.72;3.97;;;50.30;37.90;;;;;;5115192;27;20068;-72
2021/07/30 13:29:51;;;;;;;6.20;3.92;;;50.10;38.50;;;;;;5118727;27;20034;-71
2021/07/30 13:32:16;;;;;;;11.27;4.05;;;50.30;37.90;;;;;;5136619;27;20157;-71
2021/07/30 13:34:42;;;;;;;7.22;3.90;;;50.60;37.50;;;;;;5118226;27;20042;-72
2021/07/30 13:37:08;;;;;;;9.05;4.10;;;50.70;36.40;;;;;;5137223;27;20023;-71
2021/07/30 13:39:34;;;;;;;13.45;4.25;;;50.60;37.20;;;;;;5137121;27;20118;-73
2021/07/30 13:42:00;;;;;;;12.02;4.00;;;50.70;37.00;;;;;;5136883;27;20027;-72
2021/07/30 13:44:26;;;;;;;10.27;3.80;;;50.60;37.40;;;;;;5118310;27;20490;-72
2021/07/30 13:46:52;;;;;;;4.97;3.70;;;50.50;36.80;;;;;;5132950;27;20058;-72
2021/07/30 13:49:18;;;;;;;6.47;4.00;;;50.80;35.90;;;;;;5136520;27;20047;-75